Time;durP1;ratioP1;P1;durP2;ratioP2;P2;SDS_P1;SDS_P2;PMS_P1;PMS_P2;Temp;Humidity;BMP_temperature;BMP_pressure;BME280_temperature;BME280_humidity;BME280_pressure;Samples;Min_cycle;Max_cycle;Signal;HPM_P1;HPM_P2
2023/05/10 00:00:50;;;;;;;9.40;6.33;;;14.30;70.90;;;;;;5051753;28;20404;-47
2023/05/10 00:03:17;;;;;;;7.73;5.83;;;14.30;71.10;;;;;;5051701;28;20438;-47
2023/05/10 00:05:43;;;;;;;6.80;6.13;;;14.30;71.30;;;;;;5051556;28;20422;-47
2023/05/10 00:08:10;;;;;;;6.60;5.90;;;13.80;71.60;;;;;;5033527;28;20429;-46
2023/05/10 00:10:38;;;;;;;8.33;6.87;;;13.80;71.00;;;;;;5055414;28;20442;-46
2023/05/10 00:13:05;;;;;;;9.63;6.70;;;13.80;71.10;;;;;;5055760;28;20465;-47
2023/05/10 00:15:31;;;;;;;10.10;6.90;;;13.70;71.20;;;;;;5055797;28;20485;-46
2023/05/10 00:17:58;;;;;;;7.10;5.87;;;14.20;71.90;;;;;;5055846;28;20434;-46
2023/05/10 00:20:25;;;;;;;7.20;6.50;;;13.90;71.70;;;;;;5055472;28;20777;-46
2023/05/10 00:22:51;;;;;;;7.90;6.20;;;13.90;71.80;;;;;;5066964;28;20468;-47
2023/05/10 00:25:18;;;;;;;7.57;6.40;;;14.00;72.10;;;;;;5075786;28;20490;-47
2023/05/10 00:27:46;;;;;;;10.50;7.23;;;13.70;72.00;;;;;;5075069;28;20808;-46
2023/05/10 00:30:13;;;;;;;6.43;5.83;;;13.70;72.10;;;;;;5057180;28;20976;-47
2023/05/10 00:32:39;;;;;;;6.73;5.60;;;14.10;72.60;;;;;;5075537;28;20458;-47
2023/05/10 00:35:06;;;;;;;7.60;6.67;;;13.70;72.40;;;;;;5075394;28;20474;-47
2023/05/10 00:37:33;;;;;;;6.63;5.60;;;13.70;72.60;;;;;;5057439;28;20415;-46
2023/05/10 00:40:01;;;;;;;8.20;6.67;;;14.00;73.10;;;;;;5057000;28;20453;-47
2023/05/10 00:42:27;;;;;;;7.10;6.40;;;13.80;72.90;;;;;;5057225;28;20500;-46
2023/05/10 00:44:57;;;;;;;6.70;6.00;;;13.40;72.70;;;;;;5057693;28;20446;-46
2023/05/10 00:47:24;;;;;;;8.13;6.80;;;13.70;73.20;;;;;;5058057;28;20438;-46
2023/05/10 00:49:51;;;;;;;7.27;6.50;;;13.70;73.60;;;;;;5076497;28;20419;-46
2023/05/10 00:52:17;;;;;;;12.30;7.57;;;13.60;73.40;;;;;;5059052;28;20475;-45
2023/05/10 00:54:44;;;;;;;11.70;6.10;;;13.80;73.80;;;;;;5076629;28;20476;-48
2023/05/10 00:57:11;;;;;;;6.97;6.27;;;13.40;73.60;;;;;;5059732;28;20485;-46
2023/05/10 00:59:38;;;;;;;8.70;6.93;;;13.70;74.20;;;;;;5075916;28;20811;-48
2023/05/10 01:02:07;;;;;;;8.20;6.63;;;13.30;74.00;;;;;;5076644;28;20407;-45
2023/05/10 01:04:34;;;;;;;10.40;5.83;;;13.70;74.70;;;;;;5075248;28;20411;-46
2023/05/10 01:07:01;;;;;;;6.80;6.20;;;13.10;74.10;;;;;;5074854;28;20433;-47
2023/05/10 01:09:27;;;;;;;7.40;6.37;;;13.20;74.20;;;;;;5074474;28;20436;-47
2023/05/10 01:11:55;;;;;;;11.17;6.23;;;13.50;75.00;;;;;;5074779;28;20432;-46
2023/05/10 01:14:23;;;;;;;8.33;7.53;;;13.20;74.70;;;;;;5074779;28;20491;-48
2023/05/10 01:16:50;;;;;;;7.30;6.60;;;13.40;75.20;;;;;;5056722;28;20435;-46
2023/05/10 01:19:23;;;;;;;9.93;6.17;;;13.10;75.10;;;;;;5056307;28;20449;-47
2023/05/10 01:21:58;;;;;;;7.57;6.80;;;13.60;75.90;;;;;;5074724;28;20752;-47
2023/05/10 01:25:02;;;;;;;9.07;6.40;;;13.00;75.40;;;;;;5074686;28;20827;-47
2023/05/10 01:28:00;;;;;;;6.53;5.50;;;13.10;75.90;;;;;;5018146;28;20958;-47
2023/05/10 01:30:46;;;;;;;6.27;5.70;;;12.90;76.10;;;;;;5056223;28;20797;-46
2023/05/10 01:33:19;;;;;;;8.47;6.30;;;12.80;76.10;;;;;;5074382;28;20455;-47
2023/05/10 01:35:53;;;;;;;9.10;6.53;;;13.20;76.90;;;;;;5056381;28;21021;-47
2023/05/10 01:38:27;;;;;;;6.90;6.10;;;13.30;76.90;;;;;;5073853;28;20457;-46
2023/05/10 01:41:05;;;;;;;8.33;7.00;;;12.70;76.50;;;;;;5074383;28;20411;-46
2023/05/10 01:43:37;;;;;;;6.70;6.00;;;12.90;77.10;;;;;;5074152;28;20904;-47
2023/05/10 01:46:10;;;;;;;8.20;6.73;;;12.90;77.10;;;;;;5074124;28;20926;-47
2023/05/10 01:48:41;;;;;;;7.00;6.13;;;13.30;77.50;;;;;;5054604;28;20961;-46
2023/05/10 01:51:08;;;;;;;6.73;6.03;;;12.70;77.00;;;;;;5054239;28;20439;-47
2023/05/10 01:53:38;;;;;;;7.37;6.57;;;12.30;76.90;;;;;;5053876;28;20457;-46
2023/05/10 01:56:06;;;;;;;8.17;6.90;;;12.40;77.10;;;;;;5054478;28;20483;-47
2023/05/10 01:58:35;;;;;;;8.87;6.50;;;13.10;78.30;;;;;;5035916;28;20535;-47
2023/05/10 02:01:05;;;;;;;6.90;6.20;;;12.50;77.50;;;;;;5054186;28;20780;-47
2023/05/10 02:03:33;;;;;;;6.73;6.13;;;12.60;78.00;;;;;;5054340;28;20454;-47
2023/05/10 02:06:01;;;;;;;8.23;6.33;;;12.40;78.00;;;;;;5036003;28;20464;-46
2023/05/10 02:08:28;;;;;;;7.63;6.70;;;13.00;78.80;;;;;;5052292;28;20431;-48
2023/05/10 02:10:57;;;;;;;8.80;7.83;;;12.60;78.40;;;;;;5035054;28;20809;-46
2023/05/10 02:13:25;;;;;;;10.23;6.60;;;12.90;79.10;;;;;;5034613;28;20461;-47
2023/05/10 02:15:53;;;;;;;11.40;6.53;;;12.80;79.20;;;;;;5035624;28;20507;-46
2023/05/10 02:18:21;;;;;;;7.40;5.93;;;12.70;79.10;;;;;;5035229;28;20975;-47
2023/05/10 02:20:48;;;;;;;6.60;5.83;;;12.40;78.90;;;;;;5035699;28;20957;-48
2023/05/10 02:23:18;;;;;;;6.53;5.87;;;12.60;79.20;;;;;;5068259;28;20490;-47
2023/05/10 02:25:47;;;;;;;9.53;6.43;;;12.40;79.10;;;;;;5073384;28;20902;-47
2023/05/10 02:28:16;;;;;;;8.43;6.30;;;12.40;79.40;;;;;;5073015;28;20511;-46
2023/05/10 02:30:43;;;;;;;8.57;6.17;;;12.50;79.70;;;;;;5055293;28;20422;-47
2023/05/10 02:33:12;;;;;;;7.37;6.30;;;12.80;80.30;;;;;;5054801;28;20463;-46
2023/05/10 02:35:39;;;;;;;8.60;6.53;;;12.70;80.30;;;;;;5071792;28;20479;-47
2023/05/10 02:38:08;;;;;;;11.00;7.00;;;12.50;80.00;;;;;;5053933;28;20443;-46
2023/05/10 02:40:37;;;;;;;8.87;7.00;;;12.50;80.10;;;;;;5071951;28;20934;-48
2023/05/10 02:43:06;;;;;;;8.37;5.80;;;12.40;80.10;;;;;;5072763;28;20445;-47
2023/05/10 02:45:36;;;;;;;8.13;6.30;;;11.90;79.70;;;;;;5073210;28;20513;-48
2023/05/10 02:48:03;;;;;;;7.10;6.00;;;12.20;80.10;;;;;;5055053;28;20451;-47
2023/05/10 02:50:33;;;;;;;8.13;5.70;;;12.20;80.30;;;;;;5054876;28;20484;-47
2023/05/10 02:53:03;;;;;;;6.70;6.10;;;12.20;80.30;;;;;;5072502;28;20457;-47
2023/05/10 02:55:36;;;;;;;6.43;5.60;;;11.70;79.90;;;;;;5054816;28;20458;-46
2023/05/10 02:58:04;;;;;;;14.77;7.27;;;12.20;80.70;;;;;;5072895;28;20453;-47
2023/05/10 03:00:32;;;;;;;11.10;6.30;;;12.10;80.50;;;;;;5072370;28;20439;-48
2023/05/10 03:02:59;;;;;;;12.13;6.73;;;12.40;81.10;;;;;;5054579;28;20464;-47
2023/05/10 03:05:27;;;;;;;8.90;6.50;;;12.50;81.30;;;;;;5054928;28;20772;-46
2023/05/10 03:07:54;;;;;;;9.43;6.27;;;12.20;81.10;;;;;;5054496;28;20449;-47
2023/05/10 03:10:23;;;;;;;8.60;6.77;;;12.40;81.30;;;;;;5072369;28;20441;-48
2023/05/10 03:13:07;;;;;;;6.90;5.80;;;11.90;80.80;;;;;;5054895;28;20476;-47
2023/05/10 03:15:57;;;;;;;10.00;6.00;;;12.00;81.00;;;;;;5054697;28;20506;-48
2023/05/10 03:18:29;;;;;;;10.00;6.03;;;12.30;81.20;;;;;;5072145;28;20768;-48
2023/05/10 03:20:59;;;;;;;10.47;6.60;;;12.50;81.50;;;;;;5072441;28;20527;-47
2023/05/10 03:23:30;;;;;;;8.20;6.40;;;12.30;81.30;;;;;;5054389;28;20967;-47
2023/05/10 03:25:58;;;;;;;8.67;6.23;;;12.10;81.20;;;;;;5072903;28;20403;-46
2023/05/10 03:28:27;;;;;;;8.83;6.60;;;12.10;81.20;;;;;;5054403;28;20921;-47
2023/05/10 03:30:54;;;;;;;6.20;5.60;;;12.30;81.40;;;;;;5055184;28;20493;-48
2023/05/10 03:33:21;;;;;;;10.03;5.73;;;12.20;81.40;;;;;;5055543;28;20475;-47
2023/05/10 03:35:48;;;;;;;5.97;5.17;;;12.30;81.70;;;;;;5074025;28;20937;-47
2023/05/10 03:38:16;;;;;;;8.27;6.20;;;11.30;80.50;;;;;;5055474;28;20442;-47
2023/05/10 03:40:43;;;;;;;6.80;5.77;;;12.00;81.40;;;;;;5055413;28;20454;-46
2023/05/10 03:43:09;;;;;;;7.30;5.40;;;12.10;81.50;;;;;;5054752;28;20548;-46
2023/05/10 03:45:37;;;;;;;8.67;5.67;;;12.10;81.70;;;;;;5072367;28;20409;-48
2023/05/10 03:48:04;;;;;;;7.20;5.47;;;12.20;81.80;;;;;;5039346;28;20451;-48
2023/05/10 03:50:31;;;;;;;8.53;6.40;;;11.90;81.40;;;;;;5033849;28;20432;-46
2023/05/10 03:52:58;;;;;;;8.37;6.90;;;12.00;81.60;;;;;;5051599;28;20803;-47
2023/05/10 03:55:24;;;;;;;8.90;5.90;;;11.80;81.40;;;;;;5033842;28;20482;-47
2023/05/10 03:57:51;;;;;;;8.20;5.83;;;11.70;81.30;;;;;;5033803;28;20448;-47
2023/05/10 04:00:18;;;;;;;11.67;6.70;;;12.20;81.80;;;;;;5033577;28;20453;-47
2023/05/10 04:02:48;;;;;;;12.97;5.97;;;12.20;81.90;;;;;;5033412;28;21014;-47
2023/05/10 04:05:18;;;;;;;11.83;6.30;;;12.40;82.00;;;;;;5033911;28;20458;-47
2023/05/10 04:07:46;;;;;;;11.57;6.53;;;11.80;81.40;;;;;;5051526;28;20448;-47
2023/05/10 04:10:13;;;;;;;6.87;5.90;;;12.30;81.90;;;;;;5033364;28;20436;-47
2023/05/10 04:12:40;;;;;;;6.40;5.50;;;11.90;81.50;;;;;;5051743;28;20456;-46
2023/05/10 04:15:08;;;;;;;7.40;5.30;;;12.00;81.40;;;;;;5051600;28;21109;-46
2023/05/10 04:17:34;;;;;;;8.07;5.90;;;12.10;81.40;;;;;;5051611;28;20960;-47
2023/05/10 04:20:03;;;;;;;6.90;4.70;;;12.10;81.40;;;;;;5051171;28;20440;-47
2023/05/10 04:22:30;;;;;;;9.20;5.80;;;12.60;81.40;;;;;;5059920;28;20550;-46
2023/05/10 04:24:56;;;;;;;8.57;4.87;;;12.90;81.20;;;;;;5071519;28;20784;-47
2023/05/10 04:27:23;;;;;;;9.47;5.40;;;12.80;80.60;;;;;;5071498;28;20430;-46
2023/05/10 04:29:50;;;;;;;8.90;6.47;;;13.20;80.50;;;;;;5071446;28;20437;-47
2023/05/10 04:32:17;;;;;;;7.60;5.30;;;12.80;79.50;;;;;;5071771;28;20812;-46
2023/05/10 04:34:43;;;;;;;7.37;5.63;;;13.10;79.20;;;;;;5071006;28;20452;-47
2023/05/10 04:37:11;;;;;;;7.73;6.53;;;13.10;78.70;;;;;;5071168;28;20477;-47
2023/05/10 04:39:38;;;;;;;8.53;4.87;;;13.50;78.60;;;;;;5070635;28;20416;-47
2023/05/10 04:42:05;;;;;;;7.03;5.30;;;13.30;77.80;;;;;;5071038;28;20482;-47
2023/05/10 04:44:32;;;;;;;6.20;4.70;;;13.70;77.90;;;;;;5071317;28;20997;-48
2023/05/10 04:46:58;;;;;;;8.07;5.13;;;13.70;77.50;;;;;;5071535;28;20531;-47
2023/05/10 04:49:25;;;;;;;10.17;5.70;;;13.70;77.20;;;;;;5071564;28;20434;-47
2023/05/10 04:51:51;;;;;;;9.03;5.23;;;13.70;76.80;;;;;;5071132;28;20444;-48
2023/05/10 04:54:19;;;;;;;7.80;5.20;;;14.00;76.90;;;;;;5071233;28;20428;-48
2023/05/10 04:56:46;;;;;;;5.70;5.10;;;14.20;76.80;;;;;;5074324;28;20485;-47
2023/05/10 04:59:13;;;;;;;8.87;5.43;;;13.90;76.10;;;;;;5056516;28;20462;-48
2023/05/10 05:01:40;;;;;;;8.90;5.77;;;14.30;76.20;;;;;;5074790;28;20918;-47
2023/05/10 05:04:06;;;;;;;6.63;5.17;;;14.10;75.60;;;;;;5056727;28;20464;-48
2023/05/10 05:06:33;;;;;;;6.33;4.90;;;14.30;75.50;;;;;;5074624;28;20456;-48
2023/05/10 05:09:00;;;;;;;6.60;5.00;;;14.40;74.20;;;;;;5074420;28;20963;-47
2023/05/10 05:11:27;;;;;;;5.23;4.57;;;14.30;75.00;;;;;;5074608;28;20440;-48
2023/05/10 05:13:54;;;;;;;6.07;4.30;;;14.90;75.40;;;;;;5074406;28;20465;-48
2023/05/10 05:16:21;;;;;;;7.30;5.70;;;14.40;74.50;;;;;;5074373;28;20970;-47
2023/05/10 05:18:47;;;;;;;6.00;5.00;;;14.30;74.20;;;;;;5074012;28;20433;-48
2023/05/10 05:21:15;;;;;;;9.70;5.43;;;14.80;74.20;;;;;;5074086;28;20436;-47
2023/05/10 05:23:42;;;;;;;6.97;5.33;;;14.70;73.70;;;;;;5073922;28;20436;-47
2023/05/10 05:26:09;;;;;;;10.97;5.07;;;14.90;73.80;;;;;;5074684;28;20777;-48
2023/05/10 05:28:37;;;;;;;6.77;4.90;;;15.50;73.90;;;;;;5073307;28;20411;-47
2023/05/10 05:31:04;;;;;;;6.83;5.63;;;15.30;73.30;;;;;;5074805;28;20491;-47
2023/05/10 05:33:31;;;;;;;5.63;4.67;;;15.10;72.70;;;;;;5074084;28;20449;-50
2023/05/10 05:35:57;;;;;;;5.93;4.47;;;14.70;72.00;;;;;;5073320;28;20448;-47
2023/05/10 05:38:24;;;;;;;6.97;5.07;;;14.80;71.80;;;;;;5073336;28;20428;-47
2023/05/10 05:40:50;;;;;;;8.40;5.20;;;15.40;72.10;;;;;;5073684;28;20441;-50
2023/05/10 05:43:17;;;;;;;6.13;4.47;;;15.30;71.70;;;;;;5074183;28;20445;-50
2023/05/10 05:45:45;;;;;;;9.60;4.23;;;15.60;71.80;;;;;;5072992;28;20871;-49
2023/05/10 05:48:12;;;;;;;8.83;4.30;;;15.30;71.20;;;;;;5057320;28;20439;-49
2023/05/10 05:50:38;;;;;;;5.83;4.00;;;15.40;71.20;;;;;;5053535;28;20445;-50
2023/05/10 05:53:05;;;;;;;8.10;4.17;;;15.90;71.40;;;;;;5052802;28;20457;-51
2023/05/10 05:55:32;;;;;;;5.97;4.20;;;15.90;71.10;;;;;;5053095;28;20438;-49
2023/05/10 05:57:58;;;;;;;5.13;4.40;;;16.30;71.40;;;;;;5053286;28;20446;-50
2023/05/10 06:00:25;;;;;;;4.67;3.80;;;16.40;71.30;;;;;;5052853;28;20443;-49
2023/05/10 06:02:53;;;;;;;5.40;3.73;;;16.40;70.90;;;;;;5053715;28;20455;-50
2023/05/10 06:05:21;;;;;;;6.70;3.70;;;16.20;70.70;;;;;;5053743;28;20501;-50
2023/05/10 06:07:47;;;;;;;6.17;4.50;;;16.30;70.40;;;;;;5052527;28;20463;-49
2023/05/10 06:10:14;;;;;;;4.77;3.93;;;16.30;70.40;;;;;;5052777;28;20420;-51
2023/05/10 06:12:40;;;;;;;6.37;4.10;;;16.70;70.60;;;;;;5053044;28;20449;-50
2023/05/10 06:15:08;;;;;;;5.47;3.63;;;16.40;70.00;;;;;;5052790;28;20516;-49
2023/05/10 06:17:35;;;;;;;3.97;3.40;;;16.40;69.60;;;;;;5053137;28;20474;-51
2023/05/10 06:20:05;;;;;;;6.47;4.37;;;16.70;69.80;;;;;;5052489;28;20424;-49
2023/05/10 06:22:31;;;;;;;7.83;4.40;;;16.60;69.60;;;;;;5060987;28;20473;-51
2023/05/10 06:24:58;;;;;;;6.70;3.43;;;16.80;69.80;;;;;;5072864;28;20435;-49
2023/05/10 06:27:24;;;;;;;5.77;3.60;;;16.80;69.70;;;;;;5072318;28;20428;-50
2023/05/10 06:29:51;;;;;;;9.00;3.90;;;16.40;69.00;;;;;;5072431;28;20413;-50
2023/05/10 06:32:18;;;;;;;8.07;3.53;;;16.70;69.10;;;;;;5054516;28;20510;-49
2023/05/10 06:34:44;;;;;;;8.13;3.40;;;16.70;69.00;;;;;;5073076;28;20900;-50
2023/05/10 06:37:12;;;;;;;4.77;2.87;;;16.60;68.70;;;;;;5072943;28;20574;-51
2023/05/10 06:39:39;;;;;;;4.60;3.10;;;16.90;68.80;;;;;;5072174;28;20436;-50
2023/05/10 06:42:06;;;;;;;7.40;3.87;;;16.50;68.20;;;;;;5072722;28;20435;-49
2023/05/10 06:44:33;;;;;;;5.60;3.50;;;16.70;68.60;;;;;;5054423;28;20466;-49
2023/05/10 06:47:00;;;;;;;6.10;3.77;;;16.80;68.70;;;;;;5071744;28;20465;-51
2023/05/10 06:49:26;;;;;;;8.40;3.20;;;16.80;68.60;;;;;;5071836;28;20445;-49
2023/05/10 06:51:53;;;;;;;5.13;3.87;;;16.90;68.90;;;;;;5072338;28;20453;-51
2023/05/10 06:54:21;;;;;;;12.60;3.50;;;16.90;69.00;;;;;;5072232;28;20443;-50
2023/05/10 06:56:48;;;;;;;6.80;3.47;;;16.70;68.90;;;;;;5072005;28;20548;-51
2023/05/10 06:59:16;;;;;;;5.43;3.17;;;17.10;69.50;;;;;;5071612;28;20461;-51
2023/05/10 07:01:42;;;;;;;5.13;3.37;;;17.10;69.40;;;;;;5072135;28;20767;-48
2023/05/10 07:04:09;;;;;;;8.27;3.50;;;17.00;69.20;;;;;;5072024;28;20447;-50
2023/05/10 07:06:36;;;;;;;4.40;3.30;;;17.00;69.00;;;;;;5072225;28;20431;-50
2023/05/10 07:09:02;;;;;;;7.27;3.90;;;17.00;69.00;;;;;;5071191;28;20542;-51
2023/05/10 07:11:30;;;;;;;4.70;3.53;;;17.20;69.10;;;;;;5072076;28;20428;-50
2023/05/10 07:13:57;;;;;;;5.57;3.40;;;16.90;68.80;;;;;;5071784;28;20472;-49
2023/05/10 07:16:23;;;;;;;9.37;3.30;;;16.90;69.00;;;;;;5071705;28;20552;-49
2023/05/10 07:18:50;;;;;;;4.50;2.90;;;17.20;69.10;;;;;;5071597;28;20434;-50
2023/05/10 07:21:17;;;;;;;3.83;2.80;;;17.10;69.00;;;;;;5071797;28;20534;-49
2023/05/10 07:23:43;;;;;;;5.03;2.93;;;17.10;69.10;;;;;;5071526;28;20975;-52
2023/05/10 07:26:11;;;;;;;4.30;2.93;;;17.30;69.30;;;;;;5071713;28;20819;-51
2023/05/10 07:28:39;;;;;;;8.10;3.23;;;17.20;69.50;;;;;;5071271;28;20869;-51
2023/05/10 07:31:05;;;;;;;6.83;3.27;;;17.50;69.60;;;;;;5071858;28;20439;-50
2023/05/10 07:33:32;;;;;;;6.33;3.50;;;17.30;69.30;;;;;;5071206;28;20447;-51
2023/05/10 07:35:58;;;;;;;9.03;4.10;;;17.10;69.00;;;;;;5071479;28;20472;-51
2023/05/10 07:38:25;;;;;;;17.88;12.70;;;17.50;69.50;;;;;;5069783;28;20988;-51
2023/05/10 07:40:52;;;;;;;12.10;10.07;;;17.90;69.00;;;;;;5071382;28;20197;-51
2023/05/10 07:43:18;;;;;;;12.80;4.00;;;17.70;68.50;;;;;;5071469;28;20472;-51
2023/05/10 07:45:46;;;;;;;5.40;3.50;;;17.90;68.80;;;;;;5072061;28;20431;-51
2023/05/10 07:48:13;;;;;;;6.40;3.67;;;17.60;68.30;;;;;;5055087;28;20435;-50
2023/05/10 07:50:39;;;;;;;5.30;3.37;;;17.50;68.20;;;;;;5051452;28;20432;-49
2023/05/10 07:53:06;;;;;;;6.00;3.20;;;17.80;68.70;;;;;;5051493;28;20471;-49
2023/05/10 07:55:33;;;;;;;7.40;3.80;;;17.60;68.50;;;;;;5051492;28;20521;-51
2023/05/10 07:58:00;;;;;;;9.30;4.10;;;17.40;68.40;;;;;;5051237;28;20530;-50
2023/05/10 08:00:27;;;;;;;4.80;3.17;;;17.60;68.80;;;;;;5050964;28;20439;-49
2023/05/10 08:02:55;;;;;;;12.73;3.37;;;17.50;68.80;;;;;;5050928;28;20548;-49
2023/05/10 08:05:22;;;;;;;6.93;3.63;;;17.60;69.00;;;;;;5051126;28;20514;-49
2023/05/10 08:07:48;;;;;;;4.37;2.97;;;17.40;68.70;;;;;;5051242;28;20947;-49
2023/05/10 08:10:15;;;;;;;6.43;3.10;;;17.50;68.50;;;;;;5051043;28;20508;-49
2023/05/10 08:12:42;;;;;;;5.70;3.20;;;17.10;68.10;;;;;;5051507;28;20953;-50
2023/05/10 08:15:09;;;;;;;6.77;3.20;;;17.50;68.70;;;;;;5033092;28;20874;-50
2023/05/10 08:17:36;;;;;;;7.73;3.20;;;17.90;69.40;;;;;;5050996;28;20551;-50
2023/05/10 08:20:05;;;;;;;7.20;3.27;;;17.60;68.80;;;;;;5050588;28;20770;-50
2023/05/10 08:22:31;;;;;;;4.57;3.60;;;17.70;68.80;;;;;;5059362;28;20563;-51
2023/05/10 08:24:58;;;;;;;4.20;3.40;;;17.50;68.50;;;;;;5070740;28;20432;-49
2023/05/10 08:27:24;;;;;;;5.87;3.80;;;17.60;68.60;;;;;;5070965;28;20433;-48
2023/05/10 08:29:51;;;;;;;3.83;3.23;;;17.70;68.40;;;;;;5070974;28;20819;-50
2023/05/10 08:32:18;;;;;;;4.90;3.73;;;18.00;68.40;;;;;;5075196;28;20520;-49
2023/05/10 08:34:44;;;;;;;9.00;3.03;;;17.90;67.90;;;;;;5075246;28;20821;-48
2023/05/10 08:37:13;;;;;;;12.53;5.67;;;17.40;67.40;;;;;;5074780;28;20813;-49
2023/05/10 08:39:39;;;;;;;5.10;3.37;;;17.90;67.90;;;;;;5074289;28;20440;-50
2023/05/10 08:42:08;;;;;;;7.20;3.67;;;18.00;68.20;;;;;;5074627;28;20997;-49
2023/05/10 08:44:36;;;;;;;8.30;3.00;;;18.00;67.50;;;;;;5074439;28;20462;-49
2023/05/10 08:47:06;;;;;;;4.80;3.37;;;18.00;67.60;;;;;;5067845;28;20588;-49
2023/05/10 08:49:33;;;;;;;3.90;3.00;;;18.20;67.90;;;;;;5054819;28;20449;-49
2023/05/10 08:52:04;;;;;;;4.30;3.10;;;18.20;68.10;;;;;;5054761;28;20432;-50
2023/05/10 08:54:32;;;;;;;3.73;3.40;;;18.00;67.60;;;;;;5054818;28;20434;-50
2023/05/10 08:56:59;;;;;;;9.90;3.17;;;18.30;67.70;;;;;;5054568;28;20473;-49
2023/05/10 08:59:26;;;;;;;5.97;3.17;;;18.30;67.40;;;;;;5054021;28;20429;-49
2023/05/10 09:01:54;;;;;;;5.40;3.30;;;17.80;66.60;;;;;;5054166;28;20442;-52
2023/05/10 09:04:22;;;;;;;10.90;4.20;;;18.50;67.00;;;;;;5054122;28;20433;-51
2023/05/10 09:06:48;;;;;;;5.40;3.30;;;18.40;66.60;;;;;;5054448;28;20489;-50
2023/05/10 09:09:16;;;;;;;4.40;3.37;;;18.40;66.30;;;;;;5052563;28;20456;-51
2023/05/10 09:11:45;;;;;;;4.23;2.53;;;18.50;66.30;;;;;;5054293;28;20431;-50
2023/05/10 09:14:13;;;;;;;5.57;3.00;;;18.40;66.20;;;;;;5054450;28;20549;-49
2023/05/10 09:16:40;;;;;;;4.93;3.60;;;18.00;65.70;;;;;;5054046;28;20445;-50
2023/05/10 09:19:08;;;;;;;3.37;2.63;;;18.30;66.30;;;;;;5053966;28;20459;-49
2023/05/10 09:21:36;;;;;;;6.68;3.05;;;18.70;66.30;;;;;;5054011;28;20539;-50
2023/05/10 09:24:04;;;;;;;7.43;3.20;;;18.60;65.40;;;;;;5073528;28;20231;-49
2023/05/10 09:26:31;;;;;;;5.53;3.40;;;18.30;64.80;;;;;;5073733;28;20478;-50
2023/05/10 09:29:01;;;;;;;7.60;3.38;;;18.40;64.80;;;;;;5072553;28;20422;-52
2023/05/10 09:31:46;;;;;;;5.20;3.57;;;19.10;64.40;;;;;;5073835;28;20200;-51
2023/05/10 09:34:17;;;;;;;4.50;3.10;;;18.90;64.10;;;;;;5073305;28;21011;-51
2023/05/10 09:36:57;;;;;;;5.03;3.47;;;18.90;64.30;;;;;;5073945;28;20425;-50
2023/05/10 09:39:32;;;;;;;4.13;3.03;;;18.80;64.40;;;;;;5073766;28;20797;-51
2023/05/10 09:42:00;;;;;;;5.27;3.30;;;18.90;64.70;;;;;;5072494;28;20804;-51
2023/05/10 09:44:28;;;;;;;3.70;3.10;;;19.00;64.80;;;;;;5073828;28;20927;-51
2023/05/10 09:46:55;;;;;;;6.20;2.90;;;19.10;64.60;;;;;;5073646;28;20801;-49
2023/05/10 09:49:21;;;;;;;3.77;3.10;;;19.10;64.40;;;;;;5073113;28;20428;-50
2023/05/10 09:51:48;;;;;;;5.07;3.40;;;18.90;64.10;;;;;;5073486;28;20429;-50
2023/05/10 09:54:16;;;;;;;7.03;3.20;;;18.70;63.90;;;;;;5055240;28;20576;-49
2023/05/10 09:56:43;;;;;;;5.40;4.13;;;19.00;64.30;;;;;;5073159;28;20947;-49
2023/05/10 09:59:12;;;;;;;13.97;4.60;;;18.70;63.90;;;;;;5073141;28;20434;-50
2023/05/10 10:01:41;;;;;;;11.43;3.90;;;18.70;64.00;;;;;;5073419;28;20449;-49
2023/05/10 10:04:10;;;;;;;5.43;3.90;;;19.00;64.30;;;;;;5054855;28;20466;-50
2023/05/10 10:06:38;;;;;;;6.43;2.87;;;19.20;64.00;;;;;;5073329;28;20453;-50
2023/05/10 10:09:05;;;;;;;6.40;3.03;;;19.10;63.70;;;;;;5073027;28;20510;-50
2023/05/10 10:11:32;;;;;;;6.90;3.70;;;19.00;62.50;;;;;;5073256;28;20532;-50
2023/05/10 10:13:59;;;;;;;5.77;3.03;;;18.80;62.60;;;;;;5072874;28;20465;-50
2023/05/10 10:16:27;;;;;;;7.83;3.83;;;19.10;63.30;;;;;;5072785;28;20481;-50
2023/05/10 10:18:55;;;;;;;6.83;3.37;;;19.30;63.40;;;;;;5072533;28;20477;-50
2023/05/10 10:21:23;;;;;;;4.70;3.03;;;19.40;63.10;;;;;;5073072;28;20884;-50
2023/05/10 10:23:49;;;;;;;6.73;2.93;;;19.60;63.60;;;;;;5072685;28;20467;-50
2023/05/10 10:26:18;;;;;;;3.87;3.17;;;19.70;63.30;;;;;;5072500;28;20800;-50
2023/05/10 10:28:52;;;;;;;5.47;4.00;;;19.30;62.90;;;;;;5072162;28;20426;-51
2023/05/10 10:31:27;;;;;;;4.80;3.27;;;19.60;63.60;;;;;;5072710;28;20922;-51
2023/05/10 10:34:02;;;;;;;3.70;2.63;;;19.10;63.20;;;;;;5072440;28;20458;-50
2023/05/10 10:36:30;;;;;;;8.63;3.30;;;19.70;63.70;;;;;;5072878;28;20421;-50
2023/05/10 10:39:00;;;;;;;5.63;3.70;;;19.50;62.80;;;;;;5072288;28;20486;-50
2023/05/10 10:41:32;;;;;;;7.93;3.10;;;19.20;62.70;;;;;;5072701;28;20484;-50
2023/05/10 10:44:24;;;;;;;5.67;3.27;;;19.40;63.00;;;;;;5072431;28;20485;-51
2023/05/10 10:47:02;;;;;;;7.53;3.10;;;19.70;63.30;;;;;;5067369;28;20439;-50
2023/05/10 10:49:32;;;;;;;6.00;3.50;;;19.60;63.30;;;;;;5051973;28;20430;-50
2023/05/10 10:52:15;;;;;;;5.37;3.07;;;19.10;62.40;;;;;;5052526;28;20477;-50
2023/05/10 10:54:42;;;;;;;4.47;3.33;;;19.80;62.90;;;;;;5052264;28;20430;-50
2023/05/10 10:57:12;;;;;;;7.43;4.00;;;19.60;62.50;;;;;;5052181;28;20886;-51
2023/05/10 10:59:43;;;;;;;4.70;3.13;;;19.80;62.30;;;;;;5051789;28;20473;-51
2023/05/10 11:02:10;;;;;;;9.40;3.00;;;19.90;62.60;;;;;;5052264;28;20414;-51
2023/05/10 11:04:46;;;;;;;8.67;3.50;;;19.90;62.20;;;;;;5052778;28;20781;-51
2023/05/10 11:07:20;;;;;;;7.77;3.33;;;19.90;62.30;;;;;;5034275;28;20840;-50
2023/05/10 11:09:48;;;;;;;9.53;3.37;;;19.80;62.50;;;;;;5051506;28;20515;-51
2023/05/10 11:12:14;;;;;;;4.80;3.10;;;19.90;62.50;;;;;;5052347;28;20472;-49
2023/05/10 11:14:41;;;;;;;13.53;3.30;;;20.00;62.40;;;;;;5052054;28;20440;-50
2023/05/10 11:17:23;;;;;;;4.03;2.87;;;20.20;61.80;;;;;;5051764;28;20500;-51
2023/05/10 11:20:10;;;;;;;3.97;3.30;;;20.00;61.20;;;;;;5051993;28;20944;-50
2023/05/10 11:22:52;;;;;;;6.60;3.30;;;20.10;61.30;;;;;;5061175;28;20468;-49
2023/05/10 11:25:18;;;;;;;8.13;3.00;;;19.80;61.30;;;;;;5069655;28;20463;-48
2023/05/10 11:27:45;;;;;;;4.50;2.90;;;20.20;61.60;;;;;;5071890;28;20431;-49
2023/05/10 11:30:13;;;;;;;7.23;3.33;;;20.20;61.20;;;;;;5070895;28;20501;-50
2023/05/10 11:32:41;;;;;;;5.00;2.97;;;20.10;61.20;;;;;;5071092;28;20477;-49
2023/05/10 11:35:11;;;;;;;8.97;3.03;;;20.30;61.60;;;;;;5071662;28;20426;-50
2023/05/10 11:37:41;;;;;;;5.57;3.20;;;20.90;61.60;;;;;;5071767;28;20883;-51
2023/05/10 11:40:09;;;;;;;10.40;3.70;;;20.50;60.80;;;;;;5071983;28;20952;-50
2023/05/10 11:42:37;;;;;;;9.93;3.57;;;20.50;60.70;;;;;;5072303;28;20495;-49
2023/05/10 11:45:05;;;;;;;6.18;2.55;;;20.50;60.50;;;;;;5070844;28;20426;-50
2023/05/10 11:47:31;;;;;;;5.37;3.03;;;20.90;59.70;;;;;;5071125;28;20194;-50
2023/05/10 11:49:58;;;;;;;4.80;3.27;;;20.70;59.80;;;;;;5071052;28;20437;-50
2023/05/10 11:52:26;;;;;;;5.23;3.20;;;20.70;60.10;;;;;;5071146;28;20459;-49
2023/05/10 11:54:53;;;;;;;8.90;3.20;;;20.50;60.00;;;;;;5071722;28;20431;-49
2023/05/10 11:57:21;;;;;;;23.07;20.67;;;20.70;60.30;;;;;;5070770;28;20444;-48
2023/05/10 11:59:47;;;;;;;8.10;7.30;;;20.80;60.30;;;;;;5070949;28;20439;-49
2023/05/10 12:02:14;;;;;;;7.20;3.10;;;20.50;60.30;;;;;;5052953;28;20572;-49
2023/05/10 12:04:42;;;;;;;7.30;3.00;;;20.80;60.10;;;;;;5052652;28;20472;-50
2023/05/10 12:07:10;;;;;;;4.20;2.80;;;20.80;59.50;;;;;;5071026;28;20554;-50
2023/05/10 12:09:42;;;;;;;9.10;3.40;;;20.90;59.30;;;;;;5070590;28;20905;-48
2023/05/10 12:12:09;;;;;;;9.70;3.40;;;20.70;59.10;;;;;;5071493;28;20455;-50
2023/05/10 12:14:36;;;;;;;4.00;2.90;;;20.90;59.40;;;;;;5070886;28;21034;-49
2023/05/10 12:17:02;;;;;;;4.47;3.07;;;20.90;59.30;;;;;;5071404;28;20554;-48
2023/05/10 12:19:37;;;;;;;5.47;3.33;;;21.00;58.80;;;;;;5070494;28;20484;-48
2023/05/10 12:22:05;;;;;;;5.50;3.30;;;21.00;58.40;;;;;;5071180;28;20446;-49
2023/05/10 12:24:35;;;;;;;6.13;3.57;;;21.00;58.40;;;;;;5071013;28;20510;-49
2023/05/10 12:27:09;;;;;;;8.00;3.10;;;21.00;58.10;;;;;;5071009;28;20438;-49
2023/05/10 12:29:35;;;;;;;5.33;2.83;;;21.10;57.50;;;;;;5070475;28;20480;-48
2023/05/10 12:32:03;;;;;;;7.40;3.97;;;21.10;57.70;;;;;;5070769;28;20454;-49
2023/05/10 12:34:32;;;;;;;10.70;2.73;;;21.20;57.80;;;;;;5070775;28;20441;-48
2023/05/10 12:37:00;;;;;;;6.43;3.00;;;21.20;57.10;;;;;;5070806;28;20437;-48
2023/05/10 12:39:27;;;;;;;10.93;3.37;;;21.30;56.90;;;;;;5070448;28;20844;-48
2023/05/10 12:41:53;;;;;;;4.43;3.00;;;21.30;56.60;;;;;;5070565;28;20423;-50
2023/05/10 12:44:21;;;;;;;4.73;3.33;;;21.30;56.40;;;;;;5070492;28;20441;-49
2023/05/10 12:46:48;;;;;;;13.00;3.30;;;21.40;56.50;;;;;;5066402;28;20441;-49
2023/05/10 12:49:14;;;;;;;7.50;3.33;;;20.80;56.30;;;;;;5050512;28;20446;-50
2023/05/10 12:51:41;;;;;;;6.67;3.37;;;21.40;56.90;;;;;;5050784;28;20552;-50